Aviation Digital Data Service (ADDS)

Output produced by METARs form (2155 UTC 19 February 2018)
found at http://www.aviationweather.gov/adds/metars/
 
DGAA 192100Z 21010KT CAVOK 28/24 Q1009 NOSIG
TAF DGAA 191700Z 1918/2024 22012KT 9999 FEW016 
     BECMG 2003/2005 27006KT 
     TEMPO 2006/2011 7000 SCT010 
     BECMG 2013/2015 20012KT CAVOK
       
TAF DGSI 190500Z 1906/2006 23005KT 8000 SCT015 
     TEMPO 1906/1909 4000 BR 
     BECMG 1916/1918 14005KT 
     BECMG 2000/2002 23005KT BKN012